Time;durP1;ratioP1;P1;durP2;ratioP2;P2;SDS_P1;SDS_P2;PMS_P1;PMS_P2;Temp;Humidity;BMP_temperature;BMP_pressure;BME280_temperature;BME280_humidity;BME280_pressure;Samples;Min_cycle;Max_cycle;Signal;HPM_P1;HPM_P2
2022/07/26 00:04:44;;;;;;;2.83;2.63;;;;;;;;;;12547389;28;20040;-80
2022/07/26 00:10:48;;;;;;;3.22;2.92;;;;;;;;;;12547525;28;20048;-77
2022/07/26 00:16:50;;;;;;;2.92;2.63;;;;;;;;;;12545620;28;20052;-80
2022/07/26 00:22:51;;;;;;;3.50;3.08;;;;;;;;;;12546290;28;20029;-77
2022/07/26 00:28:53;;;;;;;3.15;2.72;;;;;;;;;;12544939;28;20523;-77
2022/07/26 00:34:55;;;;;;;6.80;3.63;;;;;;;;;;12546765;28;20037;-80
2022/07/26 00:40:56;;;;;;;3.63;3.10;;;;;;;;;;12545019;28;20052;-80
2022/07/26 00:46:58;;;;;;;4.57;4.18;;;;;;;;;;12544729;28;20507;-76
2022/07/26 00:53:00;;;;;;;4.38;3.42;;;;;;;;;;12545823;28;20028;-80
2022/07/26 00:59:02;;;;;;;4.07;3.67;;;;;;;;;;12545531;28;20049;-80
2022/07/26 01:05:04;;;;;;;3.10;2.80;;;;;;;;;;12543833;28;20033;-79
2022/07/26 01:11:06;;;;;;;3.08;2.88;;;;;;;;;;12544548;28;20048;-77
2022/07/26 01:17:08;;;;;;;2.30;2.10;;;;;;;;;;12544836;28;20407;-80
2022/07/26 01:23:10;;;;;;;2.30;2.10;;;;;;;;;;12545672;28;20037;-79
2022/07/26 01:29:12;;;;;;;2.75;2.00;;;;;;;;;;12545400;28;20033;-76
2022/07/26 01:35:13;;;;;;;2.00;1.90;;;;;;;;;;12544825;28;20037;-80
2022/07/26 01:41:15;;;;;;;2.60;2.40;;;;;;;;;;12543401;28;20076;-79
2022/07/26 01:47:17;;;;;;;3.30;3.00;;;;;;;;;;12548102;28;20032;-76
2022/07/26 01:53:19;;;;;;;3.08;2.88;;;;;;;;;;12553500;28;20033;-76
2022/07/26 01:59:20;;;;;;;3.00;2.80;;;;;;;;;;12556546;28;20049;-79
2022/07/26 02:05:22;;;;;;;2.92;2.65;;;;;;;;;;12553428;28;20029;-81
2022/07/26 02:11:24;;;;;;;2.95;2.75;;;;;;;;;;12551444;28;20041;-80
2022/07/26 02:17:26;;;;;;;3.50;3.20;;;;;;;;;;12553872;28;20045;-76
2022/07/26 02:23:28;;;;;;;3.53;3.00;;;;;;;;;;12553572;28;20048;-77
2022/07/26 02:29:31;;;;;;;3.00;2.80;;;;;;;;;;12551837;28;20037;-77
2022/07/26 02:35:33;;;;;;;3.70;3.40;;;;;;;;;;12553011;28;20041;-77
2022/07/26 02:41:34;;;;;;;3.13;2.83;;;;;;;;;;12551208;28;20509;-75
2022/07/26 02:47:44;;;;;;;3.20;2.90;;;;;;;;;;12550114;28;20397;-76
2022/07/26 02:53:46;;;;;;;2.30;2.20;;;;;;;;;;12551318;28;20041;-79
2022/07/26 02:59:47;;;;;;;2.58;2.05;;;;;;;;;;12532637;28;20405;-76
2022/07/26 03:05:49;;;;;;;2.28;2.08;;;;;;;;;;12550413;28;20032;-76
2022/07/26 03:11:51;;;;;;;2.78;2.10;;;;;;;;;;12550422;28;20033;-80
2022/07/26 03:17:54;;;;;;;2.08;1.90;;;;;;;;;;12548670;28;20045;-78
2022/07/26 03:23:55;;;;;;;2.08;1.98;;;;;;;;;;12550118;28;20048;-76
2022/07/26 03:29:57;;;;;;;2.10;1.75;;;;;;;;;;12553828;28;20040;-76
2022/07/26 03:35:59;;;;;;;3.92;2.10;;;;;;;;;;12547589;28;20492;-75
2022/07/26 03:42:00;;;;;;;3.17;1.80;;;;;;;;;;12548558;28;20053;-76
2022/07/26 03:48:02;;;;;;;1.73;1.63;;;;;;;;;;12548350;28;20036;-79
2022/07/26 03:54:04;;;;;;;2.10;1.90;;;;;;;;;;12554311;28;20029;-80
2022/07/26 04:00:06;;;;;;;2.95;2.05;;;;;;;;;;12547566;28;20056;-79
2022/07/26 04:06:29;;;;;;;2.15;1.70;;;;;;;;;;12549970;28;20044;-79
2022/07/26 04:12:30;;;;;;;1.90;1.80;;;;;;;;;;12545793;28;20422;-76
2022/07/26 04:18:32;;;;;;;1.65;1.50;;;;;;;;;;12548382;28;20056;-79
2022/07/26 04:24:33;;;;;;;1.70;1.60;;;;;;;;;;12553546;28;20040;-78
2022/07/26 04:30:35;;;;;;;1.70;1.60;;;;;;;;;;12550241;28;20044;-80
2022/07/26 04:36:56;;;;;;;1.90;1.80;;;;;;;;;;12547357;28;20055;-78
2022/07/26 04:42:57;;;;;;;3.67;2.08;;;;;;;;;;12530078;28;20413;-79
2022/07/26 04:48:59;;;;;;;2.00;1.40;;;;;;;;;;12547488;28;20461;-77
2022/07/26 04:55:01;;;;;;;2.65;1.45;;;;;;;;;;12551100;28;20036;-80
2022/07/26 05:01:02;;;;;;;4.60;1.90;;;;;;;;;;12544869;28;20045;-80
2022/07/26 05:07:22;;;;;;;1.60;1.50;;;;;;;;;;12551543;28;20377;-76
2022/07/26 05:13:24;;;;;;;2.45;2.25;;;;;;;;;;12548977;28;20044;-76
2022/07/26 05:19:26;;;;;;;2.38;1.90;;;;;;;;;;12543857;28;20048;-76
2022/07/26 05:25:28;;;;;;;3.63;2.50;;;;;;;;;;12553097;28;20071;-79
2022/07/26 05:31:30;;;;;;;2.65;2.45;;;;;;;;;;12554420;28;20384;-79
2022/07/26 05:37:31;;;;;;;2.90;2.38;;;;;;;;;;12553276;28;20037;-80
2022/07/26 05:43:33;;;;;;;3.38;2.45;;;;;;;;;;12555325;28;20063;-77
2022/07/26 05:49:35;;;;;;;1.90;1.67;;;;;;;;;;12565763;28;20028;-76
2022/07/26 05:55:37;;;;;;;1.92;1.83;;;;;;;;;;12551616;28;20412;-76
2022/07/26 06:01:38;;;;;;;1.92;1.83;;;;;;;;;;12550889;28;20049;-76
2022/07/26 06:07:40;;;;;;;2.97;2.30;;;;;;;;;;12553980;28;20382;-76
2022/07/26 06:13:42;;;;;;;2.13;1.83;;;;;;;;;;12534681;28;20048;-76
2022/07/26 06:19:43;;;;;;;2.17;1.98;;;;;;;;;;12534871;28;20064;-80
2022/07/26 06:25:45;;;;;;;2.20;1.58;;;;;;;;;;12552277;28;20044;-76
2022/07/26 06:31:47;;;;;;;2.22;1.70;;;;;;;;;;12551629;28;20036;-80
2022/07/26 06:37:49;;;;;;;1.98;1.70;;;;;;;;;;12536081;28;20048;-80
2022/07/26 06:43:51;;;;;;;1.58;1.48;;;;;;;;;;12555525;28;20040;-77
2022/07/26 06:49:52;;;;;;;1.40;1.30;;;;;;;;;;12553451;28;20044;-80
2022/07/26 06:55:54;;;;;;;1.38;1.27;;;;;;;;;;12547895;28;20071;-76
2022/07/26 07:01:56;;;;;;;2.10;1.90;;;;;;;;;;12549138;28;20064;-80
2022/07/26 07:07:58;;;;;;;1.92;1.50;;;;;;;;;;12545941;28;20037;-77
2022/07/26 07:14:01;;;;;;;1.85;1.52;;;;;;;;;;12549862;28;20034;-80
2022/07/26 07:20:04;;;;;;;1.95;1.45;;;;;;;;;;12551260;28;20041;-80
2022/07/26 07:26:06;;;;;;;1.52;1.23;;;;;;;;;;12549655;28;20040;-77
2022/07/26 07:32:08;;;;;;;1.52;1.30;;;;;;;;;;12549583;28;20048;-79
2022/07/26 07:38:10;;;;;;;1.50;1.40;;;;;;;;;;12546607;28;20041;-76
2022/07/26 07:44:12;;;;;;;1.00;1.00;;;;;;;;;;12545220;28;20071;-76
2022/07/26 07:50:13;;;;;;;1.50;1.40;;;;;;;;;;12545104;28;20044;-76
2022/07/26 07:56:15;;;;;;;1.25;1.15;;;;;;;;;;12544127;28;20040;-77
2022/07/26 08:02:17;;;;;;;2.78;1.73;;;;;;;;;;12543960;28;20044;-80
2022/07/26 08:08:19;;;;;;;1.38;1.27;;;;;;;;;;12542881;28;20048;-80
2022/07/26 08:14:23;;;;;;;1.83;1.33;;;;;;;;;;12544740;28;20049;-77
2022/07/26 08:20:24;;;;;;;2.63;1.70;;;;;;;;;;12543468;28;20040;-77
2022/07/26 08:26:26;;;;;;;2.60;1.90;;;;;;;;;;12544838;28;20037;-80
2022/07/26 08:32:28;;;;;;;1.80;1.70;;;;;;;;;;12541146;28;20041;-75
2022/07/26 08:38:30;;;;;;;2.28;2.08;;;;;;;;;;12541738;28;20040;-77
2022/07/26 08:44:32;;;;;;;1.95;1.83;;;;;;;;;;12543179;28;20041;-77
2022/07/26 08:50:34;;;;;;;2.20;2.00;;;;;;;;;;12540637;28;20033;-79
2022/07/26 08:56:40;;;;;;;1.95;1.80;;;;;;;;;;12541102;28;20033;-77
2022/07/26 09:02:42;;;;;;;2.83;2.00;;;;;;;;;;12540321;28;20033;-76
2022/07/26 09:08:44;;;;;;;1.80;1.70;;;;;;;;;;12544709;28;20033;-77
2022/07/26 09:14:47;;;;;;;1.70;1.60;;;;;;;;;;12542152;28;20041;-80
2022/07/26 09:20:49;;;;;;;1.38;1.27;;;;;;;;;;12540108;28;20044;-80
2022/07/26 09:26:55;;;;;;;1.25;1.20;;;;;;;;;;12540574;28;20036;-80
2022/07/26 09:32:57;;;;;;;1.92;1.83;;;;;;;;;;12546447;28;20248;-79
2022/07/26 09:39:03;;;;;;;1.48;1.38;;;;;;;;;;12543061;28;20067;-76
2022/07/26 09:45:15;;;;;;;1.80;1.70;;;;;;;;;;12541770;28;20033;-79
2022/07/26 09:51:36;;;;;;;1.92;1.60;;;;;;;;;;12544203;28;20102;-76
2022/07/26 09:57:38;;;;;;;2.08;1.73;;;;;;;;;;12540251;28;20045;-80
2022/07/26 10:03:40;;;;;;;2.60;2.03;;;;;;;;;;12539720;28;20036;-76
2022/07/26 10:09:48;;;;;;;2.67;2.03;;;;;;;;;;12545466;28;20029;-79
2022/07/26 10:15:50;;;;;;;2.75;1.90;;;;;;;;;;12548208;28;20044;-80
2022/07/26 10:22:12;;;;;;;2.40;1.73;;;;;;;;;;12549083;28;20370;-80
2022/07/26 10:28:22;;;;;;;2.80;2.00;;;;;;;;;;12548161;28;20040;-78
2022/07/26 10:34:24;;;;;;;;;;;;;;;;;;12549980;28;20036;-77
2022/07/26 10:40:29;;;;;;;2.30;2.10;;;;;;;;;;12547776;28;19920;-77
2022/07/26 10:46:30;;;;;;;2.22;2.03;;;;;;;;;;12547977;28;20488;-80
2022/07/26 10:52:32;;;;;;;1.80;1.70;;;;;;;;;;12547169;28;20425;-76
2022/07/26 10:58:42;;;;;;;2.72;1.95;;;;;;;;;;12529940;28;20045;-78
2022/07/26 11:04:44;;;;;;;2.63;1.60;;;;;;;;;;12546270;28;20041;-80
2022/07/26 11:10:47;;;;;;;1.67;1.50;;;;;;;;;;12546803;28;20045;-79
2022/07/26 11:16:49;;;;;;;2.58;2.38;;;;;;;;;;12546478;28;20049;-80
2022/07/26 11:22:51;;;;;;;1.77;1.67;;;;;;;;;;12546924;28;20396;-76
2022/07/26 11:28:56;;;;;;;2.33;1.75;;;;;;;;;;12547418;28;20029;-76
2022/07/26 11:35:02;;;;;;;3.97;2.45;;;;;;;;;;12548460;28;20504;-77
2022/07/26 11:41:03;;;;;;;2.20;2.10;;;;;;;;;;12546057;28;20045;-77
2022/07/26 11:47:14;;;;;;;2.30;2.10;;;;;;;;;;12544308;28;20060;-79
2022/07/26 11:53:20;;;;;;;2.85;2.40;;;;;;;;;;12544618;28;20409;-75
2022/07/26 11:59:23;;;;;;;2.30;2.10;;;;;;;;;;12546111;28;20056;-77
2022/07/26 12:05:25;;;;;;;3.40;2.60;;;;;;;;;;12543909;28;20480;-80
2022/07/26 12:11:36;;;;;;;3.00;2.40;;;;;;;;;;12546270;28;20049;-77
2022/07/26 12:17:38;;;;;;;2.60;2.40;;;;;;;;;;12544022;28;20048;-77
2022/07/26 12:23:51;;;;;;;2.30;2.10;;;;;;;;;;12547207;28;20423;-76
2022/07/26 12:29:54;;;;;;;2.33;1.80;;;;;;;;;;12543644;28;20404;-77
2022/07/26 12:36:00;;;;;;;2.10;2.00;;;;;;;;;;12543282;28;20041;-79
2022/07/26 12:42:20;;;;;;;1.60;1.50;;;;;;;;;;12545175;28;20069;-76
2022/07/26 12:48:22;;;;;;;1.77;1.67;;;;;;;;;;12542936;28;20055;-80
2022/07/26 12:54:24;;;;;;;1.50;1.40;;;;;;;;;;12527811;28;20353;-77
2022/07/26 13:00:26;;;;;;;1.98;1.40;;;;;;;;;;12545202;28;20045;-80
2022/07/26 13:06:27;;;;;;;1.10;1.10;;;;;;;;;;12544391;28;20366;-80
2022/07/26 13:12:29;;;;;;;1.42;1.00;;;;;;;;;;12544196;28;20041;-80
2022/07/26 13:18:31;;;;;;;1.20;1.10;;;;;;;;;;12544834;28;20045;-76
2022/07/26 13:24:33;;;;;;;1.27;1.08;;;;;;;;;;12545011;28;20033;-77
2022/07/26 13:30:36;;;;;;;1.10;1.00;;;;;;;;;;12543820;28;20037;-80
2022/07/26 13:36:38;;;;;;;1.30;1.20;;;;;;;;;;12543794;28;20386;-80
2022/07/26 13:42:40;;;;;;;1.42;0.93;;;;;;;;;;12546666;28;20057;-79
2022/07/26 13:48:42;;;;;;;1.33;1.00;;;;;;;;;;12553726;28;20037;-77
2022/07/26 13:54:43;;;;;;;1.33;1.02;;;;;;;;;;12553547;28;20040;-80
2022/07/26 14:00:45;;;;;;;0.77;0.77;;;;;;;;;;12552234;28;20503;-76
2022/07/26 14:06:47;;;;;;;0.88;0.85;;;;;;;;;;12551854;28;20053;-76
2022/07/26 14:12:49;;;;;;;1.33;0.98;;;;;;;;;;12553812;28;20385;-76
2022/07/26 14:18:53;;;;;;;2.72;1.38;;;;;;;;;;12552975;28;20040;-80
2022/07/26 14:24:55;;;;;;;1.75;1.00;;;;;;;;;;12551805;28;20484;-76
2022/07/26 14:30:57;;;;;;;2.10;1.60;;;;;;;;;;12551136;28;20389;-79
2022/07/26 14:36:59;;;;;;;1.08;0.98;;;;;;;;;;12550390;28;20491;-77
2022/07/26 14:43:01;;;;;;;1.30;1.10;;;;;;;;;;12551629;28;20049;-80
2022/07/26 14:49:02;;;;;;;1.95;1.23;;;;;;;;;;12549889;28;20037;-80
2022/07/26 14:55:05;;;;;;;2.10;1.40;;;;;;;;;;12548537;28;20033;-80
2022/07/26 15:01:06;;;;;;;1.42;1.33;;;;;;;;;;12550360;28;20045;-77
2022/07/26 15:07:08;;;;;;;1.75;1.17;;;;;;;;;;12550489;28;20041;-80
2022/07/26 15:13:11;;;;;;;1.02;1.00;;;;;;;;;;12552751;28;20048;-76
2022/07/26 15:19:13;;;;;;;0.82;0.80;;;;;;;;;;12554842;28;20052;-81
2022/07/26 15:25:15;;;;;;;2.13;1.30;;;;;;;;;;12533979;28;20043;-80
2022/07/26 15:31:17;;;;;;;5.22;1.10;;;;;;;;;;12549019;28;20190;-77
2022/07/26 15:37:19;;;;;;;1.55;1.30;;;;;;;;;;12546824;28;20044;-77
2022/07/26 15:43:21;;;;;;;1.33;1.23;;;;;;;;;;12546911;28;20068;-77
2022/07/26 15:49:23;;;;;;;2.53;1.48;;;;;;;;;;12547437;28;20021;-77
2022/07/26 15:55:25;;;;;;;1.30;1.15;;;;;;;;;;12548275;28;20058;-77
2022/07/26 16:01:27;;;;;;;1.73;1.20;;;;;;;;;;12547187;28;20045;-77
2022/07/26 16:07:29;;;;;;;1.38;1.05;;;;;;;;;;12547753;28;20044;-80
2022/07/26 16:13:31;;;;;;;0.82;0.82;;;;;;;;;;12548380;28;20041;-76
2022/07/26 16:19:32;;;;;;;0.95;0.95;;;;;;;;;;12546318;28;20037;-79
2022/07/26 16:25:34;;;;;;;1.48;1.08;;;;;;;;;;12545714;28;20910;-77
2022/07/26 16:31:36;;;;;;;1.20;1.10;;;;;;;;;;12544638;28;20037;-77
2022/07/26 16:37:38;;;;;;;1.10;1.00;;;;;;;;;;12547801;28;20382;-77
2022/07/26 16:43:40;;;;;;;0.80;0.80;;;;;;;;;;12544489;28;20053;-76
2022/07/26 16:49:42;;;;;;;2.03;0.90;;;;;;;;;;12544498;28;20037;-76
2022/07/26 16:55:44;;;;;;;1.00;0.90;;;;;;;;;;12544551;28;20036;-76
2022/07/26 17:01:45;;;;;;;1.23;1.10;;;;;;;;;;12545258;28;20052;-80
2022/07/26 17:07:47;;;;;;;0.57;0.57;;;;;;;;;;12542956;28;20041;-80
2022/07/26 17:13:49;;;;;;;1.20;0.90;;;;;;;;;;12541342;28;20033;-76
2022/07/26 17:19:52;;;;;;;1.23;0.90;;;;;;;;;;12547691;28;20049;-77
2022/07/26 17:25:53;;;;;;;1.00;0.80;;;;;;;;;;12552790;28;20044;-80
2022/07/26 17:31:55;;;;;;;1.95;1.05;;;;;;;;;;12550626;28;20065;-80
2022/07/26 17:37:57;;;;;;;1.02;0.95;;;;;;;;;;12549907;28;20033;-77
2022/07/26 17:43:59;;;;;;;0.93;0.93;;;;;;;;;;12550303;28;20061;-77
2022/07/26 17:50:01;;;;;;;1.27;1.00;;;;;;;;;;12550806;28;20029;-77
2022/07/26 17:56:03;;;;;;;1.30;0.90;;;;;;;;;;12549338;28;20035;-80
2022/07/26 18:02:04;;;;;;;0.93;0.90;;;;;;;;;;12550300;28;20472;-76
2022/07/26 18:08:06;;;;;;;1.20;0.80;;;;;;;;;;12550156;28;20037;-76
2022/07/26 18:14:08;;;;;;;2.08;0.88;;;;;;;;;;12551134;28;20503;-80
2022/07/26 18:20:11;;;;;;;0.77;0.77;;;;;;;;;;12549343;28;20044;-80
2022/07/26 18:26:12;;;;;;;2.78;1.00;;;;;;;;;;12549201;28;20045;-80
2022/07/26 18:32:14;;;;;;;1.35;1.10;;;;;;;;;;12547430;28;20040;-80
2022/07/26 18:38:16;;;;;;;1.98;0.75;;;;;;;;;;12550848;28;20408;-79
2022/07/26 18:44:18;;;;;;;1.30;1.08;;;;;;;;;;12551869;28;20065;-76
2022/07/26 18:50:19;;;;;;;1.45;1.33;;;;;;;;;;12551505;28;20397;-77
2022/07/26 18:56:21;;;;;;;1.73;1.27;;;;;;;;;;12550858;28;20495;-77
2022/07/26 19:02:23;;;;;;;2.55;1.45;;;;;;;;;;12533066;28;20045;-80
2022/07/26 19:08:24;;;;;;;1.60;1.50;;;;;;;;;;12549408;28;20033;-80
2022/07/26 19:14:26;;;;;;;2.08;1.50;;;;;;;;;;12548265;28;20044;-80
2022/07/26 19:20:28;;;;;;;2.47;1.27;;;;;;;;;;12547472;28;20052;-80
2022/07/26 19:26:30;;;;;;;2.20;1.17;;;;;;;;;;12547949;28;20044;-79
2022/07/26 19:32:32;;;;;;;1.40;1.10;;;;;;;;;;12548120;28;20397;-80
2022/07/26 19:38:34;;;;;;;2.30;1.60;;;;;;;;;;12548506;28;20497;-76
2022/07/26 19:44:35;;;;;;;1.52;1.42;;;;;;;;;;12546415;28;20408;-78
2022/07/26 19:50:37;;;;;;;1.30;1.23;;;;;;;;;;12546998;28;20025;-76
2022/07/26 19:56:40;;;;;;;1.75;1.27;;;;;;;;;;12548284;28;20037;-80
2022/07/26 20:02:42;;;;;;;1.75;1.40;;;;;;;;;;12547991;28;20040;-80
2022/07/26 20:08:44;;;;;;;1.50;1.40;;;;;;;;;;12545892;28;20040;-76
2022/07/26 20:14:47;;;;;;;1.73;1.23;;;;;;;;;;12547188;28;20052;-80
2022/07/26 20:20:52;;;;;;;1.42;1.33;;;;;;;;;;12545565;28;20037;-78
2022/07/26 20:26:54;;;;;;;1.40;1.30;;;;;;;;;;12547262;28;20484;-77
2022/07/26 20:32:56;;;;;;;2.03;1.38;;;;;;;;;;12545209;28;20509;-80
2022/07/26 20:38:58;;;;;;;1.50;1.40;;;;;;;;;;12545394;28;20053;-77
2022/07/26 20:45:00;;;;;;;1.40;1.30;;;;;;;;;;12545175;28;20075;-80
2022/07/26 20:51:06;;;;;;;1.35;1.25;;;;;;;;;;12546685;28;20489;-80
2022/07/26 20:57:08;;;;;;;1.75;1.20;;;;;;;;;;12545234;28;20419;-80
2022/07/26 21:03:12;;;;;;;1.63;1.10;;;;;;;;;;12544180;28;20045;-77
2022/07/26 21:09:14;;;;;;;1.30;1.10;;;;;;;;;;12545158;28;20037;-77
2022/07/26 21:15:16;;;;;;;1.45;1.08;;;;;;;;;;12544536;28;20473;-81
2022/07/26 21:21:18;;;;;;;1.10;1.10;;;;;;;;;;12545037;28;20056;-77
2022/07/26 21:27:19;;;;;;;1.40;1.08;;;;;;;;;;12544897;28;20038;-80
2022/07/26 21:33:21;;;;;;;1.60;1.50;;;;;;;;;;12543620;28;20036;-77
2022/07/26 21:39:23;;;;;;;1.70;1.60;;;;;;;;;;12542928;28;20079;-77
2022/07/26 21:45:25;;;;;;;1.42;1.33;;;;;;;;;;12543063;28;20037;-76
2022/07/26 21:51:27;;;;;;;1.40;1.30;;;;;;;;;;12544596;28;20037;-81
2022/07/26 21:57:29;;;;;;;1.60;1.50;;;;;;;;;;12544234;28;20048;-81
2022/07/26 22:03:31;;;;;;;1.40;1.30;;;;;;;;;;12545862;28;20492;-76
2022/07/26 22:09:33;;;;;;;1.30;1.20;;;;;;;;;;12535961;28;20033;-77
2022/07/26 22:15:35;;;;;;;2.38;1.30;;;;;;;;;;12552134;28;20043;-79
2022/07/26 22:21:37;;;;;;;1.90;1.00;;;;;;;;;;12551391;28;20052;-80
2022/07/26 22:27:38;;;;;;;1.40;1.30;;;;;;;;;;12551802;28;20033;-80
2022/07/26 22:33:40;;;;;;;1.35;1.20;;;;;;;;;;12550395;28;20036;-79
2022/07/26 22:39:42;;;;;;;1.63;1.40;;;;;;;;;;12551625;28;20507;-80
2022/07/26 22:45:44;;;;;;;2.58;1.50;;;;;;;;;;12550773;28;20052;-80
2022/07/26 22:51:46;;;;;;;1.77;1.63;;;;;;;;;;12549944;28;20056;-77
2022/07/26 22:57:48;;;;;;;1.75;1.60;;;;;;;;;;12550065;28;20477;-80
2022/07/26 23:03:50;;;;;;;1.30;1.20;;;;;;;;;;12550859;28;20044;-76
2022/07/26 23:09:52;;;;;;;2.38;1.70;;;;;;;;;;12549690;28;20036;-76
2022/07/26 23:15:54;;;;;;;1.58;1.48;;;;;;;;;;12549551;28;20025;-79
2022/07/26 23:21:56;;;;;;;1.60;1.50;;;;;;;;;;12548681;28;20048;-80
2022/07/26 23:27:58;;;;;;;1.33;1.17;;;;;;;;;;12550166;28;20044;-76
2022/07/26 23:34:00;;;;;;;2.28;1.42;;;;;;;;;;12549548;28;20040;-80
2022/07/26 23:40:01;;;;;;;1.52;1.40;;;;;;;;;;12549212;28;20053;-75
2022/07/26 23:46:03;;;;;;;2.08;1.55;;;;;;;;;;12548100;28;20502;-79
2022/07/26 23:52:05;;;;;;;1.70;1.60;;;;;;;;;;12548816;28;20041;-77
2022/07/26 23:58:07;;;;;;;1.60;1.20;;;;;;;;;;12548610;28;20049;-80
